createdAt,value
2022-11-14T00:01:25.554Z,20.47
2022-11-14T00:04:29.989Z,17.97
2022-11-14T00:07:33.308Z,22.13
2022-11-14T00:10:36.384Z,20.07
2022-11-14T00:13:39.325Z,19.47
2022-11-14T00:16:42.331Z,21.40
2022-11-14T00:19:46.624Z,21.47
2022-11-14T00:22:49.563Z,20.13
2022-11-14T00:25:52.535Z,18.53
2022-11-14T00:28:56.084Z,22.00
2022-11-14T00:31:59.053Z,19.20
2022-11-14T00:35:03.380Z,21.67
2022-11-14T00:38:06.345Z,19.80
2022-11-14T00:41:09.370Z,24.70
2022-11-14T00:44:12.420Z,21.87
2022-11-14T00:47:15.456Z,22.13
2022-11-14T00:50:20.213Z,21.20
2022-11-14T00:53:23.169Z,23.10
2022-11-14T00:56:26.176Z,21.20
2022-11-14T00:59:29.194Z,20.50
2022-11-14T01:02:32.173Z,21.87
2022-11-14T01:05:41.967Z,20.60
2022-11-14T01:08:45.702Z,23.40
2022-11-14T01:11:48.693Z,23.43
2022-11-14T01:14:51.718Z,22.60
2022-11-14T01:17:54.684Z,24.03
2022-11-14T01:20:59.882Z,22.27
2022-11-14T01:24:02.981Z,24.63
2022-11-14T01:27:06.048Z,24.03
2022-11-14T01:30:09.773Z,25.00
2022-11-14T01:33:12.895Z,22.40
2022-11-14T01:36:17.497Z,21.87
2022-11-14T01:39:20.447Z,20.67
2022-11-14T01:42:27.397Z,25.57
2022-11-14T01:45:51.872Z,28.03
2022-11-14T01:48:59.335Z,24.23
2022-11-14T01:52:06.983Z,22.63
2022-11-14T01:55:11.168Z,27.53
2022-11-14T01:58:15.293Z,22.37
2022-11-14T02:01:18.279Z,22.13
2022-11-14T02:04:24.712Z,21.10
2022-11-14T02:07:32.092Z,22.67
2022-11-14T02:10:35.153Z,25.80
2022-11-14T02:13:38.379Z,23.30
2022-11-14T02:16:51.744Z,24.37
2022-11-14T02:20:28.373Z,26.07
2022-11-14T02:23:33.340Z,25.23
2022-11-14T02:26:36.923Z,21.67
2022-11-14T02:29:39.937Z,24.53
2022-11-14T02:33:10.463Z,23.27
2022-11-14T02:36:07.913Z,23.90
2022-11-14T02:39:10.855Z,22.93
2022-11-14T02:42:13.831Z,26.07
2022-11-14T02:45:16.903Z,23.93
2022-11-14T02:48:20.316Z,23.07
2022-11-14T02:51:24.857Z,23.30
2022-11-14T02:54:27.873Z,23.53
2022-11-14T02:57:30.845Z,25.73
2022-11-14T03:00:33.846Z,23.63
2022-11-14T03:03:36.822Z,20.77
2022-11-14T03:06:41.166Z,22.30
2022-11-14T03:09:44.167Z,24.83
2022-11-14T03:12:47.288Z,21.43
2022-11-14T03:15:50.282Z,23.97
2022-11-14T03:18:53.304Z,25.33
2022-11-14T03:21:57.661Z,21.67
2022-11-14T03:25:00.596Z,22.57
2022-11-14T03:28:03.560Z,22.17
2022-11-14T03:31:07.722Z,26.50
2022-11-14T03:34:10.801Z,25.17
2022-11-14T03:37:15.180Z,23.87
2022-11-14T03:40:18.551Z,25.03
2022-11-14T03:43:22.487Z,23.57
2022-11-14T03:46:25.563Z,27.07
2022-11-14T03:49:28.505Z,25.47
2022-11-14T03:52:32.895Z,25.27
2022-11-14T03:55:35.911Z,25.60
2022-11-14T03:58:38.968Z,24.90
2022-11-14T04:01:41.932Z,26.43
2022-11-14T04:04:44.891Z,26.33
2022-11-14T04:07:49.175Z,26.13
2022-11-14T04:10:52.142Z,26.07
2022-11-14T04:13:55.106Z,25.33
2022-11-14T04:16:58.066Z,25.13
2022-11-14T04:20:01.007Z,25.33
2022-11-14T04:23:05.342Z,21.50
2022-11-14T04:26:08.303Z,24.30
2022-11-14T04:29:11.253Z,21.93
2022-11-14T04:32:14.209Z,24.23
2022-11-14T04:35:17.466Z,23.77
2022-11-14T04:38:21.933Z,25.80
2022-11-14T04:41:24.904Z,23.00
2022-11-14T04:44:27.859Z,24.77
2022-11-14T04:47:31.067Z,24.20
2022-11-14T04:50:34.024Z,25.67
2022-11-14T04:53:38.514Z,24.27
2022-11-14T04:56:41.521Z,24.33
2022-11-14T04:59:44.518Z,23.33
2022-11-14T05:02:47.469Z,23.07
2022-11-14T05:05:50.460Z,25.00
2022-11-14T05:08:54.762Z,26.70
2022-11-14T05:11:57.728Z,22.57
2022-11-14T05:15:00.760Z,22.73
2022-11-14T05:18:04.098Z,26.83
2022-11-14T05:21:07.449Z,27.93
2022-11-14T05:24:11.786Z,26.80
2022-11-14T05:27:14.722Z,26.53
2022-11-14T05:30:17.856Z,26.43
2022-11-14T05:33:20.828Z,27.17
2022-11-14T05:36:23.803Z,26.67
2022-11-14T05:39:28.091Z,23.50
2022-11-14T05:42:31.262Z,27.00
2022-11-14T05:45:34.218Z,25.60
2022-11-14T05:48:37.304Z,27.03
2022-11-14T05:51:40.272Z,27.47
2022-11-14T05:54:44.626Z,23.63
2022-11-14T05:57:47.662Z,25.77
2022-11-14T06:00:54.196Z,27.20
2022-11-14T06:03:57.634Z,27.60
2022-11-14T06:07:00.630Z,29.50
2022-11-14T06:10:05.351Z,29.70
2022-11-14T06:13:08.355Z,24.70
2022-11-14T06:16:13.042Z,25.23
2022-11-14T06:19:16.210Z,25.73
2022-11-14T06:22:19.138Z,30.17
2022-11-14T06:25:23.505Z,28.40
2022-11-14T06:28:26.594Z,25.27
2022-11-14T06:31:29.725Z,26.37
2022-11-14T06:34:32.745Z,27.40
2022-11-14T06:37:36.877Z,29.33
2022-11-14T06:40:41.224Z,30.00
2022-11-14T06:43:46.113Z,25.10
2022-11-14T06:46:49.032Z,26.30
2022-11-14T06:49:51.988Z,30.50
2022-11-14T06:52:55.102Z,31.17
2022-11-14T06:56:01.038Z,28.63
2022-11-14T06:59:03.999Z,26.23
2022-11-14T07:02:07.129Z,26.87
2022-11-14T07:05:10.284Z,29.80
2022-11-14T07:08:17.203Z,27.33
2022-11-14T07:11:27.666Z,30.63
2022-11-14T07:14:30.643Z,28.10
2022-11-14T07:17:35.686Z,28.37
2022-11-14T07:20:38.651Z,26.27
2022-11-14T07:23:42.488Z,26.87
2022-11-14T07:26:47.265Z,26.90
2022-11-14T07:29:50.223Z,27.83
2022-11-14T07:32:56.587Z,29.73
2022-11-14T07:35:59.753Z,30.07
2022-11-14T07:39:02.731Z,28.40
2022-11-14T07:42:07.043Z,29.13
2022-11-14T07:45:11.476Z,29.70
2022-11-14T07:48:14.583Z,27.70
2022-11-14T07:51:19.353Z,29.57
2022-11-14T07:54:22.384Z,27.57
2022-11-14T07:57:26.721Z,28.93
2022-11-14T08:00:30.077Z,28.63
2022-11-14T08:03:33.740Z,26.40
2022-11-14T08:06:36.766Z,27.90
2022-11-14T08:09:39.709Z,30.77
2022-11-14T08:12:44.008Z,28.23
2022-11-14T08:15:47.004Z,28.97
2022-11-14T08:18:49.989Z,28.23
2022-11-14T08:21:53.059Z,27.03
2022-11-14T08:24:56.016Z,30.07
2022-11-14T08:28:00.290Z,31.77
2022-11-14T08:31:04.383Z,27.67
2022-11-14T08:34:07.459Z,31.00
2022-11-14T08:37:10.638Z,31.47
2022-11-14T08:40:13.962Z,33.47
2022-11-14T08:43:18.245Z,33.20
2022-11-14T08:46:21.217Z,33.50
2022-11-14T08:49:24.175Z,31.87
2022-11-14T08:52:27.461Z,33.60
2022-11-14T08:55:30.423Z,30.43
2022-11-14T08:58:34.767Z,30.83
2022-11-14T09:01:37.755Z,30.37
2022-11-14T09:04:40.820Z,28.70
2022-11-14T09:07:43.911Z,28.27
2022-11-14T09:10:46.871Z,28.43
2022-11-14T09:13:51.196Z,31.50
2022-11-14T09:16:54.286Z,31.30
2022-11-14T09:19:57.357Z,29.07
2022-11-14T09:23:00.515Z,26.23
2022-11-14T09:26:06.229Z,31.60
2022-11-14T09:29:10.502Z,30.57
2022-11-14T09:32:13.616Z,28.80
2022-11-14T09:35:17.048Z,32.53
2022-11-14T09:38:19.964Z,34.83
2022-11-14T09:41:25.588Z,31.03
2022-11-14T09:44:58.409Z,31.73
2022-11-14T09:48:07.941Z,29.80
2022-11-14T09:51:15.004Z,28.00
2022-11-14T09:54:22.755Z,29.80
2022-11-14T09:57:26.970Z,30.93
2022-11-14T10:00:45.711Z,30.57
2022-11-14T10:03:54.177Z,26.87
2022-11-14T10:07:10.395Z,31.00
2022-11-14T10:10:26.297Z,32.53
2022-11-14T10:13:44.782Z,27.73
2022-11-14T10:16:59.305Z,27.83
2022-11-14T10:20:09.111Z,30.07
2022-11-14T10:23:29.759Z,30.73
2022-11-14T10:26:34.806Z,25.33
2022-11-14T10:30:07.180Z,28.27
2022-11-14T10:33:24.004Z,28.07
2022-11-14T10:36:45.878Z,28.20
2022-11-14T10:39:53.165Z,25.00
2022-11-14T10:43:02.231Z,29.00
2022-11-14T10:46:10.986Z,23.73
2022-11-14T10:49:20.231Z,24.13
2022-11-14T10:52:33.110Z,27.67
2022-11-14T10:56:03.160Z,24.83
2022-11-14T10:58:59.139Z,22.23
2022-11-14T11:02:02.159Z,25.80
2022-11-14T11:05:16.762Z,24.20
2022-11-14T11:08:43.811Z,26.00
2022-11-14T11:11:55.303Z,23.03
2022-11-14T11:15:16.015Z,22.20
2022-11-14T11:18:27.412Z,24.60
2022-11-14T11:21:48.671Z,24.07
2022-11-14T11:24:51.836Z,24.17
2022-11-14T11:28:14.220Z,22.40
2022-11-14T11:31:17.200Z,26.40
2022-11-14T11:34:25.536Z,22.10
2022-11-14T11:37:33.430Z,22.93
2022-11-14T11:40:36.421Z,25.70
2022-11-14T11:43:46.206Z,22.83
2022-11-14T11:46:56.030Z,24.17
2022-11-14T11:50:00.203Z,26.03
2022-11-14T11:53:13.875Z,22.33
2022-11-14T11:56:22.832Z,23.73
2022-11-14T11:59:34.409Z,20.77
2022-11-14T12:02:48.160Z,22.20
2022-11-14T12:06:04.514Z,25.43
2022-11-14T12:09:19.024Z,20.70
2022-11-14T12:12:35.465Z,19.60
2022-11-14T12:15:46.089Z,22.27
2022-11-14T12:19:08.312Z,22.17
2022-11-14T12:22:38.631Z,21.10
2022-11-14T12:25:58.322Z,23.37
2022-11-14T12:29:27.228Z,21.37
2022-11-14T12:32:33.553Z,21.13
2022-11-14T12:35:39.383Z,22.97
2022-11-14T12:38:46.170Z,20.20
2022-11-14T12:41:50.554Z,19.43
2022-11-14T12:44:53.559Z,22.27
2022-11-14T12:48:22.182Z,20.27
2022-11-14T12:51:55.435Z,20.57
2022-11-14T12:54:58.452Z,22.57
2022-11-14T12:58:08.446Z,22.07
2022-11-14T13:01:26.596Z,23.17
2022-11-14T13:04:39.662Z,22.63
2022-11-14T13:07:53.187Z,23.80
2022-11-14T13:10:56.237Z,21.77
2022-11-14T13:14:20.959Z,24.10
2022-11-14T13:17:46.107Z,20.97
2022-11-14T13:21:21.588Z,24.67
2022-11-14T13:24:24.571Z,21.77
2022-11-14T13:27:52.108Z,20.50
2022-11-14T13:31:20.519Z,20.53
2022-11-14T13:34:37.300Z,21.30
2022-11-14T13:38:21.862Z,21.13
2022-11-14T13:42:05.523Z,23.73
2022-11-14T13:45:49.906Z,25.70
2022-11-14T13:49:16.845Z,25.90
2022-11-14T13:52:20.527Z,24.37
2022-11-14T13:55:29.014Z,26.17
2022-11-14T13:58:50.594Z,23.53
2022-11-14T14:02:15.977Z,25.67
2022-11-14T14:05:35.653Z,21.80
2022-11-14T14:08:55.639Z,24.30
2022-11-14T14:12:12.549Z,22.33
2022-11-14T14:15:23.230Z,21.87
2022-11-14T14:18:36.486Z,23.97
2022-11-14T14:21:49.087Z,23.50
2022-11-14T14:25:00.533Z,20.40
2022-11-14T14:28:12.606Z,20.83
2022-11-14T14:31:19.844Z,22.37
2022-11-14T14:34:25.176Z,25.17
2022-11-14T14:37:32.345Z,27.27
2022-11-14T14:40:38.275Z,22.40
2022-11-14T14:43:43.740Z,23.43
2022-11-14T14:46:46.754Z,23.27
2022-11-14T14:49:49.788Z,24.40
2022-11-14T14:53:04.285Z,23.00
2022-11-14T14:56:17.822Z,24.77
2022-11-14T14:59:24.013Z,21.27
2022-11-14T15:02:27.375Z,26.60
2022-11-14T15:05:32.071Z,23.13
2022-11-14T15:08:40.142Z,24.27
2022-11-14T15:11:45.840Z,26.57
2022-11-14T15:14:49.959Z,23.13
2022-11-14T15:17:54.915Z,24.67
2022-11-14T15:21:14.666Z,24.47
2022-11-14T15:24:21.802Z,25.00
2022-11-14T15:27:24.801Z,22.87
2022-11-14T15:30:31.759Z,23.27
2022-11-14T15:33:36.456Z,25.60
2022-11-14T15:37:17.866Z,23.80
2022-11-14T15:40:23.267Z,24.93
2022-11-14T15:43:48.054Z,23.63
2022-11-14T15:46:51.739Z,24.07
2022-11-14T15:50:03.320Z,23.33
2022-11-14T15:53:08.406Z,25.20
2022-11-14T15:56:14.577Z,26.23
2022-11-14T15:59:19.126Z,23.03
2022-11-14T16:02:24.708Z,25.70
2022-11-14T16:05:29.814Z,25.40
2022-11-14T16:08:32.927Z,24.57
2022-11-14T16:11:37.404Z,26.10
2022-11-14T16:14:40.541Z,23.90
2022-11-14T16:17:45.175Z,23.33
2022-11-14T16:20:48.366Z,22.50
2022-11-14T16:23:51.348Z,23.60
2022-11-14T16:26:55.718Z,25.40
2022-11-14T16:29:58.646Z,23.17
2022-11-14T16:33:01.632Z,22.93
2022-11-14T16:36:05.125Z,25.27
2022-11-14T16:39:11.270Z,25.47
2022-11-14T16:42:15.640Z,23.63
2022-11-14T16:45:20.126Z,23.10
2022-11-14T16:48:23.238Z,23.33
2022-11-14T16:51:47.914Z,24.27
2022-11-14T16:54:49.114Z,24.70
2022-11-14T16:57:53.457Z,22.30
2022-11-14T17:00:56.417Z,23.23
2022-11-14T17:03:59.954Z,21.90
2022-11-14T17:07:02.963Z,19.80
2022-11-14T17:10:06.794Z,22.43
2022-11-14T17:13:11.981Z,23.43
2022-11-14T17:16:14.953Z,18.87
2022-11-14T17:19:17.921Z,25.87
2022-11-14T17:22:20.931Z,21.37
2022-11-14T17:25:24.534Z,21.43
2022-11-14T17:28:29.241Z,23.50
2022-11-14T17:31:37.595Z,24.37
2022-11-14T17:34:41.814Z,20.50
2022-11-14T17:37:44.823Z,21.80
2022-11-14T17:40:47.797Z,20.03
2022-11-14T17:43:56.591Z,21.33
2022-11-14T17:46:59.578Z,24.50
2022-11-14T17:50:02.650Z,22.50
2022-11-14T17:53:05.594Z,20.70
2022-11-14T17:56:10.198Z,22.53
2022-11-14T17:59:14.512Z,22.40
2022-11-14T18:02:19.273Z,22.83
2022-11-14T18:05:22.272Z,22.53
2022-11-14T18:08:25.822Z,20.60
2022-11-14T18:11:28.933Z,22.87
2022-11-14T18:14:33.232Z,25.63
2022-11-14T18:17:36.253Z,20.23
2022-11-14T18:20:39.386Z,19.83
2022-11-14T18:23:42.743Z,22.30
2022-11-14T18:26:45.707Z,22.33
2022-11-14T18:29:49.973Z,22.50
2022-11-14T18:32:52.919Z,24.73
2022-11-14T18:35:57.326Z,22.20
2022-11-14T18:39:00.279Z,21.50
2022-11-14T18:42:03.247Z,21.93
2022-11-14T18:45:08.622Z,21.20
2022-11-14T18:48:11.612Z,23.77
2022-11-14T18:51:17.229Z,20.47
2022-11-14T18:54:20.196Z,20.60
2022-11-14T18:57:23.188Z,21.57
2022-11-14T19:00:27.517Z,22.00
2022-11-14T19:03:32.333Z,19.80
2022-11-14T19:06:37.652Z,22.67
2022-11-14T19:09:40.893Z,21.47
2022-11-14T19:12:44.021Z,21.47
2022-11-14T19:15:48.309Z,21.90
2022-11-14T19:18:51.290Z,22.23
2022-11-14T19:21:55.034Z,17.40
2022-11-14T19:24:58.992Z,18.67
2022-11-14T19:28:01.956Z,23.13
2022-11-14T19:31:07.533Z,20.73
2022-11-14T19:34:10.705Z,21.27
2022-11-14T19:37:13.763Z,22.27
2022-11-14T19:40:16.731Z,19.17
2022-11-14T19:43:19.846Z,24.07
2022-11-14T19:46:27.084Z,21.47
2022-11-14T19:49:30.994Z,17.30
2022-11-14T19:52:33.941Z,20.70
2022-11-14T19:55:36.916Z,18.33
2022-11-14T19:58:41.561Z,23.13
2022-11-14T20:01:45.885Z,19.47
2022-11-14T20:04:49.547Z,18.07
2022-11-14T20:07:52.495Z,22.87
2022-11-14T20:10:57.024Z,21.23
2022-11-14T20:14:02.147Z,19.40
2022-11-14T20:17:06.494Z,19.73
2022-11-14T20:20:10.133Z,22.97
2022-11-14T20:23:13.170Z,24.00
2022-11-14T20:26:17.850Z,22.70
2022-11-14T20:29:20.911Z,21.10
2022-11-14T20:32:25.256Z,21.37
2022-11-14T20:35:28.204Z,22.37
2022-11-14T20:38:31.484Z,19.50
2022-11-14T20:41:34.560Z,17.73
2022-11-14T20:44:37.485Z,21.20
2022-11-14T20:47:41.816Z,21.40
2022-11-14T20:50:44.764Z,21.03
2022-11-14T20:53:48.680Z,18.03
2022-11-14T20:56:51.766Z,19.73
2022-11-14T20:59:54.707Z,21.80
2022-11-14T21:02:59.026Z,24.77
2022-11-14T21:06:02.378Z,19.90
2022-11-14T21:09:05.355Z,20.90
2022-11-14T21:12:08.400Z,20.87
2022-11-14T21:15:11.584Z,21.30
2022-11-14T21:18:15.873Z,21.53
2022-11-14T21:21:20.708Z,21.03
2022-11-14T21:24:23.793Z,20.27
2022-11-14T21:27:26.739Z,23.23
2022-11-14T21:30:32.674Z,18.67
2022-11-14T21:33:36.941Z,22.73
2022-11-14T21:36:47.523Z,20.93
2022-11-14T21:39:50.686Z,20.77
2022-11-14T21:42:54.978Z,21.33
2022-11-14T21:45:59.999Z,19.70
2022-11-14T21:49:04.295Z,21.77
2022-11-14T21:52:07.246Z,22.27
2022-11-14T21:55:10.494Z,20.33
2022-11-14T21:58:13.978Z,20.80
2022-11-14T22:01:40.276Z,20.77
2022-11-14T22:04:43.633Z,18.10
2022-11-14T22:07:46.604Z,18.57
2022-11-14T22:10:49.550Z,22.13
2022-11-14T22:13:52.523Z,20.00
2022-11-14T22:16:55.593Z,21.77
2022-11-14T22:19:59.971Z,20.17
2022-11-14T22:23:02.964Z,21.07
2022-11-14T22:26:06.064Z,18.93
2022-11-14T22:29:09.500Z,17.27
2022-11-14T22:32:12.446Z,19.30
2022-11-14T22:35:16.994Z,19.50
2022-11-14T22:38:19.967Z,20.20
2022-11-14T22:41:29.137Z,23.97
2022-11-14T22:44:35.062Z,18.70
2022-11-14T22:47:38.037Z,19.83
2022-11-14T22:50:42.319Z,22.33
2022-11-14T22:53:48.535Z,19.57
2022-11-14T22:56:51.513Z,17.63
2022-11-14T22:59:54.939Z,19.97
2022-11-14T23:02:57.896Z,20.03
2022-11-14T23:06:07.559Z,15.03
2022-11-14T23:09:10.656Z,20.80
2022-11-14T23:12:13.630Z,18.43
2022-11-14T23:15:16.783Z,18.20
2022-11-14T23:18:19.821Z,19.63
2022-11-14T23:21:26.245Z,20.63
2022-11-14T23:24:29.225Z,18.70
2022-11-14T23:27:32.181Z,19.03
2022-11-14T23:30:36.092Z,22.33
2022-11-14T23:33:39.452Z,21.33
2022-11-14T23:36:43.821Z,17.30
2022-11-14T23:39:46.831Z,17.23
2022-11-14T23:42:49.829Z,18.93
2022-11-14T23:45:52.799Z,20.53
2022-11-14T23:48:56.041Z,19.87
2022-11-14T23:52:00.665Z,17.53
2022-11-14T23:55:03.649Z,20.17
2022-11-14T23:58:06.779Z,19.33
